sensor_id;sensor_type;location;lat;lon;timestamp;pressure;altitude;pressure_sealevel;temperature;humidity
23679;BME280;12016;51.668;6.874;2023-01-27T00:04:46;102146.38;;;4.91;79.22
23679;BME280;12016;51.668;6.874;2023-01-27T00:10:48;102063.84;;;4.44;79.94
23679;BME280;12016;51.668;6.874;2023-01-27T00:17:10;102188.69;;;4.99;79.59
23679;BME280;12016;51.668;6.874;2023-01-27T00:23:18;102148.63;;;4.99;79.31
23679;BME280;12016;51.668;6.874;2023-01-27T00:29:39;102078.94;;;4.10;80.00
23679;BME280;12016;51.668;6.874;2023-01-27T00:35:41;102156.88;;;4.97;79.19
23679;BME280;12016;51.668;6.874;2023-01-27T00:41:43;102141.63;;;4.81;79.17
23679;BME280;12016;51.668;6.874;2023-01-27T00:47:47;102159.56;;;4.97;78.97
23679;BME280;12016;51.668;6.874;2023-01-27T00:53:49;101765.22;;;2.17;78.87
23679;BME280;12016;51.668;6.874;2023-01-27T00:59:51;101728.25;;;2.15;78.65
23679;BME280;12016;51.668;6.874;2023-01-27T01:05:53;102060.19;;;4.34;78.73
23679;BME280;12016;51.668;6.874;2023-01-27T01:11:55;102168.97;;;5.00;78.70
23679;BME280;12016;51.668;6.874;2023-01-27T01:17:57;101899.94;;;3.33;78.62
23679;BME280;12016;51.668;6.874;2023-01-27T01:23:59;101775.09;;;1.75;77.91
23679;BME280;12016;51.668;6.874;2023-01-27T01:30:02;102179.88;;;4.98;78.66
23679;BME280;12016;51.668;6.874;2023-01-27T01:36:07;101744.63;;;2.12;78.42
23679;BME280;12016;51.668;6.874;2023-01-27T01:42:09;102199.94;;;5.01;78.63
23679;BME280;12016;51.668;6.874;2023-01-27T01:54:32;102202.66;;;4.89;77.91
23679;BME280;12016;51.668;6.874;2023-01-27T02:00:37;102210.34;;;4.86;77.80
23679;BME280;12016;51.668;6.874;2023-01-27T02:06:49;101980.84;;;3.44;77.79
23679;BME280;12016;51.668;6.874;2023-01-27T02:12:54;102225.19;;;4.82;77.66
23679;BME280;12016;51.668;6.874;2023-01-27T02:18:57;102093.00;;;3.82;77.56
23679;BME280;12016;51.668;6.874;2023-01-27T02:25:06;101700.56;;;1.35;77.03
23679;BME280;12016;51.668;6.874;2023-01-27T02:31:12;101917.56;;;2.76;77.78
23679;BME280;12016;51.668;6.874;2023-01-27T02:37:14;102227.56;;;4.78;78.08
23679;BME280;12016;51.668;6.874;2023-01-27T02:43:17;102123.59;;;3.68;78.45
23679;BME280;12016;51.668;6.874;2023-01-27T02:49:20;102223.84;;;4.79;78.63
23679;BME280;12016;51.668;6.874;2023-01-27T02:55:22;101757.09;;;1.77;78.04
23679;BME280;12016;51.668;6.874;2023-01-27T03:01:25;101769.94;;;1.80;78.40
23679;BME280;12016;51.668;6.874;2023-01-27T03:07:27;101689.13;;;1.23;78.39
23679;BME280;12016;51.668;6.874;2023-01-27T03:13:29;102239.88;;;4.67;79.21
23679;BME280;12016;51.668;6.874;2023-01-27T03:19:31;102244.50;;;4.72;79.17
23679;BME280;12016;51.668;6.874;2023-01-27T03:25:34;101796.97;;;2.00;78.87
23679;BME280;12016;51.668;6.874;2023-01-27T03:31:36;101779.16;;;1.89;79.21
23679;BME280;12016;51.668;6.874;2023-01-27T03:37:39;102242.88;;;4.71;79.41
23679;BME280;12016;51.668;6.874;2023-01-27T03:44:00;102233.81;;;4.72;79.62
23679;BME280;12016;51.668;6.874;2023-01-27T03:50:21;102097.34;;;3.60;79.80
23679;BME280;12016;51.668;6.874;2023-01-27T03:56:38;102237.56;;;4.59;80.07
23679;BME280;12016;51.668;6.874;2023-01-27T04:02:40;102214.41;;;4.37;79.99
23679;BME280;12016;51.668;6.874;2023-01-27T04:09:00;102124.66;;;3.67;79.69
23679;BME280;12016;51.668;6.874;2023-01-27T04:15:02;102236.19;;;4.57;80.04
23679;BME280;12016;51.668;6.874;2023-01-27T04:21:04;102233.28;;;4.58;80.11
23679;BME280;12016;51.668;6.874;2023-01-27T04:27:08;102231.56;;;4.52;80.59
23679;BME280;12016;51.668;6.874;2023-01-27T04:33:10;102244.09;;;4.52;80.32
23679;BME280;12016;51.668;6.874;2023-01-27T04:39:16;102243.59;;;4.55;80.48
23679;BME280;12016;51.668;6.874;2023-01-27T04:45:19;101824.69;;;1.93;80.11
23679;BME280;12016;51.668;6.874;2023-01-27T04:51:20;102245.22;;;4.56;80.31
23679;BME280;12016;51.668;6.874;2023-01-27T04:57:22;101579.25;;;0.29;80.57
23679;BME280;12016;51.668;6.874;2023-01-27T05:03:24;102249.09;;;4.48;80.46
23679;BME280;12016;51.668;6.874;2023-01-27T05:09:26;102262.53;;;4.53;80.85
23679;BME280;12016;51.668;6.874;2023-01-27T05:15:30;102266.94;;;4.59;80.86
23679;BME280;12016;51.668;6.874;2023-01-27T05:21:32;102266.84;;;4.54;80.67
23679;BME280;12016;51.668;6.874;2023-01-27T05:27:34;102163.56;;;3.91;80.89
23679;BME280;12016;51.668;6.874;2023-01-27T05:33:37;102130.34;;;3.59;81.06
23679;BME280;12016;51.668;6.874;2023-01-27T05:39:39;102278.53;;;4.65;80.79
23679;BME280;12016;51.668;6.874;2023-01-27T05:45:41;102278.53;;;4.65;81.19
23679;BME280;12016;51.668;6.874;2023-01-27T05:51:43;102234.81;;;4.43;81.17
23679;BME280;12016;51.668;6.874;2023-01-27T05:57:45;102272.59;;;4.63;81.49
23679;BME280;12016;51.668;6.874;2023-01-27T06:03:47;102143.41;;;3.84;80.87
23679;BME280;12016;51.668;6.874;2023-01-27T06:09:49;102274.66;;;4.73;81.00
23679;BME280;12016;51.668;6.874;2023-01-27T06:15:51;102283.72;;;4.72;80.92
23679;BME280;12016;51.668;6.874;2023-01-27T06:21:53;101897.28;;;2.17;80.30
23679;BME280;12016;51.668;6.874;2023-01-27T06:27:56;102298.59;;;4.79;80.86
23679;BME280;12016;51.668;6.874;2023-01-27T06:33:58;102304.97;;;4.78;80.33
23679;BME280;12016;51.668;6.874;2023-01-27T06:39:59;102314.81;;;4.78;80.73
23679;BME280;12016;51.668;6.874;2023-01-27T06:46:09;102134.03;;;3.70;80.35
23679;BME280;12016;51.668;6.874;2023-01-27T06:52:11;101844.91;;;1.52;79.79
23679;BME280;12016;51.668;6.874;2023-01-27T06:58:14;102315.72;;;4.83;80.42
23679;BME280;12016;51.668;6.874;2023-01-27T07:04:16;101830.81;;;1.52;80.07
23679;BME280;12016;51.668;6.874;2023-01-27T07:10:18;102384.69;;;4.86;80.16
23679;BME280;12016;51.668;6.874;2023-01-27T07:16:20;102131.25;;;3.53;80.12
23679;BME280;12016;51.668;6.874;2023-01-27T07:22:22;102322.91;;;4.83;80.36
23679;BME280;12016;51.668;6.874;2023-01-27T07:28:24;102418.34;;;4.87;80.76
23679;BME280;12016;51.668;6.874;2023-01-27T07:34:26;102308.69;;;4.65;79.89
23679;BME280;12016;51.668;6.874;2023-01-27T07:40:28;102356.47;;;4.90;80.21
23679;BME280;12016;51.668;6.874;2023-01-27T07:46:29;101839.88;;;1.74;79.89
23679;BME280;12016;51.668;6.874;2023-01-27T07:52:31;102358.53;;;5.00;80.21
23679;BME280;12016;51.668;6.874;2023-01-27T07:58:33;102282.59;;;4.56;80.08
23679;BME280;12016;51.668;6.874;2023-01-27T08:04:35;102167.53;;;3.89;79.65
23679;BME280;12016;51.668;6.874;2023-01-27T08:10:51;102333.84;;;4.93;79.71
23679;BME280;12016;51.668;6.874;2023-01-27T08:16:54;102372.69;;;5.12;79.65
23679;BME280;12016;51.668;6.874;2023-01-27T08:22:57;102385.00;;;5.13;80.17
23679;BME280;12016;51.668;6.874;2023-01-27T08:28:59;102037.75;;;2.73;79.65
23679;BME280;12016;51.668;6.874;2023-01-27T08:35:01;102377.56;;;5.15;79.75
23679;BME280;12016;51.668;6.874;2023-01-27T08:41:09;102377.09;;;5.18;79.44
23679;BME280;12016;51.668;6.874;2023-01-27T08:47:11;102380.66;;;5.24;79.09
23679;BME280;12016;51.668;6.874;2023-01-27T08:53:13;102388.44;;;5.25;79.28
23679;BME280;12016;51.668;6.874;2023-01-27T08:59:15;102197.97;;;4.05;79.09
23679;BME280;12016;51.668;6.874;2023-01-27T09:05:17;102393.91;;;5.30;79.08
23679;BME280;12016;51.668;6.874;2023-01-27T09:11:19;102329.78;;;4.90;79.18
23679;BME280;12016;51.668;6.874;2023-01-27T09:17:21;102402.91;;;5.41;79.21
23679;BME280;12016;51.668;6.874;2023-01-27T09:23:23;102014.75;;;2.90;78.30
23679;BME280;12016;51.668;6.874;2023-01-27T09:29:25;102136.34;;;3.78;78.44
23679;BME280;12016;51.668;6.874;2023-01-27T09:35:35;102201.22;;;4.18;78.23
23679;BME280;12016;51.668;6.874;2023-01-27T09:54:31;102299.31;;;5.03;76.86
23679;BME280;12016;51.668;6.874;2023-01-27T10:00:54;101880.78;;;2.38;77.22
23679;BME280;12016;51.668;6.874;2023-01-27T10:13:55;102433.31;;;5.92;77.63
23679;BME280;12016;51.668;6.874;2023-01-27T10:20:10;102429.53;;;6.04;77.57
23679;BME280;12016;51.668;6.874;2023-01-27T10:39:51;102443.16;;;6.03;76.69
23679;BME280;12016;51.668;6.874;2023-01-27T10:45:43;102446.88;;;6.02;76.35
23679;BME280;12016;51.668;6.874;2023-01-27T10:52:03;102331.00;;;5.39;76.98
23679;BME280;12016;51.668;6.874;2023-01-27T11:04:22;102442.84;;;6.16;77.06
23679;BME280;12016;51.668;6.874;2023-01-27T11:10:36;102439.94;;;6.18;76.09
23679;BME280;12016;51.668;6.874;2023-01-27T11:16:43;102434.94;;;6.21;76.19
23679;BME280;12016;51.668;6.874;2023-01-27T11:29:38;102429.97;;;6.30;76.02
23679;BME280;12016;51.668;6.874;2023-01-27T11:35:41;102279.84;;;5.31;76.00
23679;BME280;12016;51.668;6.874;2023-01-27T11:41:47;102425.22;;;6.32;75.38
23679;BME280;12016;51.668;6.874;2023-01-27T11:47:55;102419.63;;;6.33;75.29
23679;BME280;12016;51.668;6.874;2023-01-27T12:00:26;102409.06;;;6.43;75.30
23679;BME280;12016;51.668;6.874;2023-01-27T12:06:36;102411.66;;;6.55;75.35
23679;BME280;12016;51.668;6.874;2023-01-27T12:12:39;102313.72;;;6.04;75.13
23679;BME280;12016;51.668;6.874;2023-01-27T12:18:55;102215.72;;;5.48;74.79
23679;BME280;12016;51.668;6.874;2023-01-27T12:25:02;102399.06;;;6.72;75.03
23679;BME280;12016;51.668;6.874;2023-01-27T12:31:09;102395.81;;;6.70;74.20
23679;BME280;12016;51.668;6.874;2023-01-27T12:37:26;102390.72;;;6.69;73.70
23679;BME280;12016;51.668;6.874;2023-01-27T12:43:49;102389.03;;;7.23;72.91
23679;BME280;12016;51.668;6.874;2023-01-27T12:50:16;102012.06;;;5.46;71.27
23679;BME280;12016;51.668;6.874;2023-01-27T12:56:21;102162.97;;;6.32;71.45
23679;BME280;12016;51.668;6.874;2023-01-27T13:02:26;102377.69;;;7.38;71.46
23679;BME280;12016;51.668;6.874;2023-01-27T13:08:32;102305.97;;;6.58;72.08
23679;BME280;12016;51.668;6.874;2023-01-27T13:14:39;102399.59;;;6.91;71.69
23679;BME280;12016;51.668;6.874;2023-01-27T13:20:45;102383.63;;;6.79;72.36
23679;BME280;12016;51.668;6.874;2023-01-27T13:26:50;102241.47;;;5.87;71.52
23679;BME280;12016;51.668;6.874;2023-01-27T13:33:01;101935.13;;;3.64;70.04
23679;BME280;12016;51.668;6.874;2023-01-27T13:45:12;102419.69;;;6.55;70.79
23679;BME280;12016;51.668;6.874;2023-01-27T13:51:19;102277.09;;;5.43;70.55
23679;BME280;12016;51.668;6.874;2023-01-27T14:04:03;102156.00;;;4.63;70.27
23679;BME280;12016;51.668;6.874;2023-01-27T14:17:15;102332.56;;;5.81;71.09
23679;BME280;12016;51.668;6.874;2023-01-27T14:23:56;102408.16;;;6.38;70.89
23679;BME280;12016;51.668;6.874;2023-01-27T14:30:41;102220.66;;;5.39;69.18
23679;BME280;12016;51.668;6.874;2023-01-27T14:50:02;102230.53;;;5.38;70.07
23679;BME280;12016;51.668;6.874;2023-01-27T14:56:38;102424.72;;;6.52;69.17
23679;BME280;12016;51.668;6.874;2023-01-27T15:27:28;101988.25;;;3.30;70.66
23679;BME280;12016;51.668;6.874;2023-01-27T15:40:15;102460.13;;;6.08;70.61
23679;BME280;12016;51.668;6.874;2023-01-27T15:46:29;102469.56;;;5.99;71.14
23679;BME280;12016;51.668;6.874;2023-01-27T15:52:43;102472.25;;;5.99;71.25
23679;BME280;12016;51.668;6.874;2023-01-27T16:05:15;102472.97;;;5.95;70.98
23679;BME280;12016;51.668;6.874;2023-01-27T16:11:38;102491.34;;;5.91;71.60
23679;BME280;12016;51.668;6.874;2023-01-27T16:17:57;102484.59;;;5.89;71.10
23679;BME280;12016;51.668;6.874;2023-01-27T16:24:04;102328.06;;;4.73;71.35
23679;BME280;12016;51.668;6.874;2023-01-27T16:42:30;102512.88;;;5.73;71.06
23679;BME280;12016;51.668;6.874;2023-01-27T16:48:37;102511.00;;;5.73;71.50
23679;BME280;12016;51.668;6.874;2023-01-27T16:54:43;102521.03;;;5.66;70.77
23679;BME280;12016;51.668;6.874;2023-01-27T17:00:46;102307.44;;;4.33;71.23
23679;BME280;12016;51.668;6.874;2023-01-27T17:06:56;102341.63;;;4.59;71.51
23679;BME280;12016;51.668;6.874;2023-01-27T17:12:59;102351.41;;;4.54;71.21
23679;BME280;12016;51.668;6.874;2023-01-27T17:19:21;102534.16;;;5.68;71.18
23679;BME280;12016;51.668;6.874;2023-01-27T17:25:34;102424.59;;;4.81;71.02
23679;BME280;12016;51.668;6.874;2023-01-27T17:31:39;102532.19;;;5.63;71.52
23679;BME280;12016;51.668;6.874;2023-01-27T17:37:43;102464.66;;;5.16;71.40
23679;BME280;12016;51.668;6.874;2023-01-27T17:43:45;102463.84;;;5.16;71.81
23679;BME280;12016;51.668;6.874;2023-01-27T17:49:49;102545.69;;;5.57;71.76
23679;BME280;12016;51.668;6.874;2023-01-27T17:55:51;102556.38;;;5.57;71.27
23679;BME280;12016;51.668;6.874;2023-01-27T18:01:58;102586.69;;;5.62;71.53
23679;BME280;12016;51.668;6.874;2023-01-27T18:08:03;102565.09;;;5.52;70.76
23679;BME280;12016;51.668;6.874;2023-01-27T18:14:08;102559.31;;;5.44;71.02
23679;BME280;12016;51.668;6.874;2023-01-27T18:20:31;102581.25;;;5.46;70.26
23679;BME280;12016;51.668;6.874;2023-01-27T18:32:40;102563.13;;;5.48;70.45
23679;BME280;12016;51.668;6.874;2023-01-27T18:38:45;102321.59;;;3.69;69.17
23679;BME280;12016;51.668;6.874;2023-01-27T18:44:51;102581.72;;;5.43;69.86
23679;BME280;12016;51.668;6.874;2023-01-27T18:50:53;102518.16;;;5.10;70.74
23679;BME280;12016;51.668;6.874;2023-01-27T18:56:55;102427.38;;;4.40;69.41
23679;BME280;12016;51.668;6.874;2023-01-27T19:02:58;102470.53;;;4.60;70.18
23679;BME280;12016;51.668;6.874;2023-01-27T19:09:01;102470.19;;;4.56;70.28
23679;BME280;12016;51.668;6.874;2023-01-27T19:15:06;102518.63;;;4.95;70.30
23679;BME280;12016;51.668;6.874;2023-01-27T19:21:11;102608.69;;;5.53;70.41
23679;BME280;12016;51.668;6.874;2023-01-27T19:27:14;102493.06;;;4.64;70.53
23679;BME280;12016;51.668;6.874;2023-01-27T19:33:17;102614.94;;;5.47;71.12
23679;BME280;12016;51.668;6.874;2023-01-27T19:39:19;102611.72;;;5.45;70.95
23679;BME280;12016;51.668;6.874;2023-01-27T19:45:22;102618.66;;;5.46;71.12
23679;BME280;12016;51.668;6.874;2023-01-27T19:51:24;102625.75;;;5.40;70.75
23679;BME280;12016;51.668;6.874;2023-01-27T19:57:27;102664.63;;;5.24;70.65
23679;BME280;12016;51.668;6.874;2023-01-27T20:03:29;102626.13;;;5.44;70.81
23679;BME280;12016;51.668;6.874;2023-01-27T20:09:31;102059.22;;;1.82;70.78
23679;BME280;12016;51.668;6.874;2023-01-27T20:15:35;102627.38;;;5.41;71.28
23679;BME280;12016;51.668;6.874;2023-01-27T20:21:44;102631.78;;;5.35;71.26
23679;BME280;12016;51.668;6.874;2023-01-27T20:27:49;102638.88;;;5.30;70.07
23679;BME280;12016;51.668;6.874;2023-01-27T20:33:51;102629.34;;;5.34;70.08
23679;BME280;12016;51.668;6.874;2023-01-27T20:39:53;102634.69;;;5.34;70.54
23679;BME280;12016;51.668;6.874;2023-01-27T20:45:55;102436.31;;;4.04;69.72
23679;BME280;12016;51.668;6.874;2023-01-27T20:51:57;102637.13;;;5.35;69.91
23679;BME280;12016;51.668;6.874;2023-01-27T20:57:59;102632.22;;;5.32;69.04
23679;BME280;12016;51.668;6.874;2023-01-27T21:04:02;102255.06;;;2.91;69.09
23679;BME280;12016;51.668;6.874;2023-01-27T21:10:05;102400.00;;;3.61;69.30
23679;BME280;12016;51.668;6.874;2023-01-27T21:16:07;102371.59;;;3.55;69.43
23679;BME280;12016;51.668;6.874;2023-01-27T21:22:10;102485.09;;;4.34;69.04
23679;BME280;12016;51.668;6.874;2023-01-27T21:28:12;102387.31;;;3.75;69.12
23679;BME280;12016;51.668;6.874;2023-01-27T21:34:14;102548.78;;;4.84;69.79
23679;BME280;12016;51.668;6.874;2023-01-27T21:40:16;102637.72;;;5.37;69.17
23679;BME280;12016;51.668;6.874;2023-01-27T21:46:17;102622.72;;;5.25;68.96
23679;BME280;12016;51.668;6.874;2023-01-27T21:52:24;102621.66;;;5.26;69.17
23679;BME280;12016;51.668;6.874;2023-01-27T21:58:27;102612.25;;;5.23;68.63
23679;BME280;12016;51.668;6.874;2023-01-27T22:04:28;102615.97;;;5.22;68.75
23679;BME280;12016;51.668;6.874;2023-01-27T22:10:30;102621.31;;;5.22;68.31
23679;BME280;12016;51.668;6.874;2023-01-27T22:16:32;102525.19;;;4.57;68.04
23679;BME280;12016;51.668;6.874;2023-01-27T22:22:34;102633.25;;;5.20;68.59
23679;BME280;12016;51.668;6.874;2023-01-27T22:28:36;102631.53;;;5.14;68.02
23679;BME280;12016;51.668;6.874;2023-01-27T22:34:37;102576.91;;;4.86;68.33
23679;BME280;12016;51.668;6.874;2023-01-27T22:40:39;102574.25;;;4.56;67.41
23679;BME280;12016;51.668;6.874;2023-01-27T22:46:42;102207.34;;;2.23;67.80
23679;BME280;12016;51.668;6.874;2023-01-27T22:52:44;102404.31;;;3.44;67.13
23679;BME280;12016;51.668;6.874;2023-01-27T22:58:46;102556.31;;;4.34;67.26
23679;BME280;12016;51.668;6.874;2023-01-27T23:04:47;102492.06;;;4.05;68.39
23679;BME280;12016;51.668;6.874;2023-01-27T23:10:49;102649.59;;;5.00;66.75
23679;BME280;12016;51.668;6.874;2023-01-27T23:16:51;102651.66;;;4.86;67.44
23679;BME280;12016;51.668;6.874;2023-01-27T23:22:53;102680.97;;;4.75;67.13
23679;BME280;12016;51.668;6.874;2023-01-27T23:28:54;102527.22;;;4.02;67.28
23679;BME280;12016;51.668;6.874;2023-01-27T23:34:56;102636.97;;;4.65;66.89
23679;BME280;12016;51.668;6.874;2023-01-27T23:41:04;102557.75;;;4.18;66.67
23679;BME280;12016;51.668;6.874;2023-01-27T23:47:07;102502.28;;;3.60;66.24
23679;BME280;12016;51.668;6.874;2023-01-27T23:53:09;102652.16;;;4.65;66.87
23679;BME280;12016;51.668;6.874;2023-01-27T23:59:11;102448.19;;;3.41;66.85
